createdAt,value
2023-05-18T00:02:49.030Z,92058.91
2023-05-18T00:05:52.429Z,92070.78
2023-05-18T00:08:55.736Z,92063.03
2023-05-18T00:12:00.235Z,92064.53
2023-05-18T00:15:03.685Z,92053.16
2023-05-18T00:18:07.542Z,92055.97
2023-05-18T00:21:10.945Z,92053.69
2023-05-18T00:24:15.145Z,92061.22
2023-05-18T00:27:18.421Z,92058.38
2023-05-18T00:30:22.648Z,92052.44
2023-05-18T00:33:25.914Z,92049.03
2023-05-18T00:36:29.136Z,92052.59
2023-05-18T00:39:32.357Z,92042.47
2023-05-18T00:42:35.688Z,92039.00
2023-05-18T00:45:39.119Z,92033.16
2023-05-18T00:48:42.178Z,92042.84
2023-05-18T00:51:46.216Z,92037.22
2023-05-18T00:54:50.354Z,92025.88
2023-05-18T00:57:57.074Z,92017.97
2023-05-18T01:01:03.398Z,92014.59
2023-05-18T01:04:06.603Z,92013.16
2023-05-18T01:07:11.797Z,92014.59
2023-05-18T01:10:17.251Z,92017.81
2023-05-18T01:13:41.202Z,92015.75
2023-05-18T01:17:06.590Z,92004.38
2023-05-18T01:20:28.217Z,92011.53
2023-05-18T01:23:43.235Z,92008.78
2023-05-18T01:26:51.188Z,92003.41
2023-05-18T01:29:57.057Z,92001.50
2023-05-18T01:33:00.339Z,91997.50
2023-05-18T01:36:05.176Z,91997.59
2023-05-18T01:39:09.519Z,91993.06
2023-05-18T01:42:20.348Z,91989.63
2023-05-18T01:45:30.917Z,91981.41
2023-05-18T01:48:39.023Z,91978.75
2023-05-18T01:51:46.246Z,91977.94
2023-05-18T01:54:54.917Z,91974.78
2023-05-18T01:58:01.522Z,91975.19
2023-05-18T02:01:05.640Z,91970.75
2023-05-18T02:04:10.625Z,91960.97
2023-05-18T02:07:14.572Z,91961.50
2023-05-18T02:10:18.952Z,91955.56
2023-05-18T02:13:22.335Z,91951.16
2023-05-18T02:16:25.665Z,91965.88
2023-05-18T02:19:31.616Z,91958.16
2023-05-18T02:22:35.492Z,91947.66
2023-05-18T02:25:39.405Z,91948.41
2023-05-18T02:28:42.752Z,91945.25
2023-05-18T02:31:46.122Z,91942.47
2023-05-18T02:34:53.649Z,91948.41
2023-05-18T02:37:58.938Z,91937.66
2023-05-18T02:41:02.270Z,91940.81
2023-05-18T02:44:06.402Z,91940.81
2023-05-18T02:47:09.761Z,91937.38
2023-05-18T02:50:13.698Z,91931.56
2023-05-18T02:53:19.764Z,91929.28
2023-05-18T02:56:23.309Z,91934.22
2023-05-18T02:59:36.867Z,91931.44
2023-05-18T03:02:40.995Z,91932.53
2023-05-18T03:05:44.419Z,91927.56
2023-05-18T03:08:49.805Z,91917.19
2023-05-18T03:11:54.185Z,91931.63
2023-05-18T03:14:57.478Z,91907.84
2023-05-18T03:18:00.874Z,91911.06
2023-05-18T03:21:05.746Z,91908.91
2023-05-18T03:24:09.059Z,91917.19
2023-05-18T03:27:17.281Z,91908.66
2023-05-18T03:30:21.672Z,91911.94
2023-05-18T03:33:25.343Z,91900.16
2023-05-18T03:36:31.661Z,91902.50
2023-05-18T03:39:34.957Z,91896.75
2023-05-18T03:42:38.912Z,91894.94
2023-05-18T03:45:42.928Z,91888.97
2023-05-18T03:48:46.432Z,91883.22
2023-05-18T03:51:55.074Z,91880.69
2023-05-18T03:54:58.378Z,91862.63
2023-05-18T03:58:02.160Z,91862.25
2023-05-18T04:01:06.139Z,91866.03
2023-05-18T04:04:18.705Z,91859.84
2023-05-18T04:07:25.159Z,91860.06
2023-05-18T04:10:29.706Z,91855.09
2023-05-18T04:13:32.969Z,91840.66
2023-05-18T04:16:36.545Z,91855.81
2023-05-18T04:19:39.834Z,91848.28
2023-05-18T04:22:49.174Z,91847.19
2023-05-18T04:25:53.645Z,91849.09
2023-05-18T04:29:00.799Z,91844.69
2023-05-18T04:32:04.293Z,91833.81
2023-05-18T04:35:08.773Z,91829.72
2023-05-18T04:38:12.170Z,91823.88
2023-05-18T04:41:21.186Z,91811.63
2023-05-18T04:44:32.230Z,91807.75
2023-05-18T04:47:36.430Z,91805.84
2023-05-18T04:50:39.637Z,91803.16
2023-05-18T04:53:46.725Z,91799.88
2023-05-18T04:56:50.834Z,91807.91
2023-05-18T04:59:54.348Z,91793.25
2023-05-18T05:02:59.622Z,91798.25
2023-05-18T05:06:02.825Z,91797.38
2023-05-18T05:09:06.158Z,91792.94
2023-05-18T05:12:10.109Z,91797.97
2023-05-18T05:15:13.442Z,91792.94
2023-05-18T05:18:17.114Z,91787.53
2023-05-18T05:21:20.518Z,91793.81
2023-05-18T05:24:23.830Z,91782.38
2023-05-18T05:27:27.148Z,91769.84
2023-05-18T05:30:31.031Z,91762.94
2023-05-18T05:33:34.940Z,91760.56
2023-05-18T05:36:38.266Z,91749.84
2023-05-18T05:39:42.126Z,91752.22
2023-05-18T05:42:45.782Z,91742.94
2023-05-18T05:45:49.587Z,91749.06
2023-05-18T05:48:57.257Z,91750.81
2023-05-18T05:52:00.557Z,91740.06
2023-05-18T05:55:03.864Z,91730.34
2023-05-18T05:58:08.786Z,91736.31
2023-05-18T06:01:12.435Z,91730.81
2023-05-18T06:04:16.648Z,91734.44
2023-05-18T06:07:19.972Z,91739.16
2023-05-18T06:10:24.217Z,91723.56
2023-05-18T06:13:27.801Z,91727.69
2023-05-18T06:16:32.870Z,91716.06
2023-05-18T06:19:36.958Z,91718.88
2023-05-18T06:22:40.397Z,91714.94
2023-05-18T06:25:55.597Z,91704.09
2023-05-18T06:29:19.301Z,91705.34
2023-05-18T06:32:38.394Z,91696.69
2023-05-18T06:35:41.976Z,91695.31
2023-05-18T06:38:45.291Z,91695.31
2023-05-18T06:41:48.855Z,91682.72
2023-05-18T06:44:58.812Z,91688.53
2023-05-18T06:48:27.961Z,91684.88
2023-05-18T06:51:31.928Z,91666.84
2023-05-18T06:54:35.496Z,91669.34
2023-05-18T06:57:38.658Z,91663.78
2023-05-18T07:00:42.255Z,91653.25
2023-05-18T07:03:47.463Z,91648.69
2023-05-18T07:06:50.824Z,91646.47
2023-05-18T07:09:55.602Z,91651.34
2023-05-18T07:12:58.918Z,91644.47
2023-05-18T07:16:02.280Z,91641.03
2023-05-18T07:19:05.625Z,91638.50
2023-05-18T07:22:09.657Z,91633.16
2023-05-18T07:25:12.966Z,91626.81
2023-05-18T07:28:16.491Z,91628.94
2023-05-18T07:31:22.309Z,91627.00
2023-05-18T07:34:27.780Z,91629.97
2023-05-18T07:37:31.710Z,91624.63
2023-05-18T07:40:34.907Z,91628.63
2023-05-18T07:43:38.163Z,91625.19
2023-05-18T07:46:42.145Z,91622.84
2023-05-18T07:49:45.563Z,91617.34
2023-05-18T07:52:48.790Z,91615.88
2023-05-18T07:55:52.491Z,91620.50
2023-05-18T07:58:56.181Z,91616.91
2023-05-18T08:02:00.964Z,91627.75
2023-05-18T08:05:04.765Z,91617.19
2023-05-18T08:08:08.880Z,91614.53
2023-05-18T08:11:12.091Z,91614.13
2023-05-18T08:14:15.424Z,91615.59
2023-05-18T08:17:20.302Z,91611.13
2023-05-18T08:20:24.318Z,91612.75
2023-05-18T08:23:27.648Z,91615.38
2023-05-18T08:26:31.365Z,91620.91
2023-05-18T08:29:34.805Z,91610.59
2023-05-18T08:32:38.242Z,91608.59
2023-05-18T08:35:42.097Z,91618.56
2023-05-18T08:38:45.710Z,91614.03
2023-05-18T08:41:54.882Z,91604.44
2023-05-18T08:45:14.117Z,91632.28
2023-05-18T08:48:18.130Z,91615.13
2023-05-18T08:51:22.873Z,91613.34
2023-05-18T08:54:27.267Z,91616.78
2023-05-18T08:57:32.926Z,91620.63
2023-05-18T09:00:36.714Z,91617.94
2023-05-18T09:03:41.517Z,91608.00
2023-05-18T09:06:45.151Z,91596.25
2023-05-18T09:09:49.440Z,91613.53
2023-05-18T09:12:55.747Z,91609.03
2023-05-18T09:15:59.072Z,91606.06
2023-05-18T09:19:02.463Z,91618.00
2023-05-18T09:22:06.301Z,91615.50
2023-05-18T09:25:11.392Z,91615.75
2023-05-18T09:28:17.503Z,91620.38
2023-05-18T09:31:22.803Z,91615.03
2023-05-18T09:34:26.133Z,91621.94
2023-05-18T09:37:29.348Z,91609.72
2023-05-18T09:40:33.423Z,91612.69
2023-05-18T09:43:36.895Z,91619.41
2023-05-18T09:46:41.110Z,91615.00
2023-05-18T09:49:44.427Z,91614.97
2023-05-18T09:52:49.996Z,91619.84
2023-05-18T09:55:53.438Z,91609.25
2023-05-18T09:58:56.929Z,91604.38
2023-05-18T10:02:02.090Z,91606.53
2023-05-18T10:05:05.605Z,91610.75
2023-05-18T10:08:08.874Z,91600.88
2023-05-18T10:11:12.410Z,91606.47
2023-05-18T10:14:15.635Z,91601.94
2023-05-18T10:17:19.077Z,91609.88
2023-05-18T10:20:28.268Z,91614.06
2023-05-18T10:23:38.288Z,91605.06
2023-05-18T10:26:44.264Z,91602.94
2023-05-18T10:29:47.744Z,91599.44
2023-05-18T10:32:53.133Z,91586.53
2023-05-18T10:35:56.493Z,91587.28
2023-05-18T10:39:02.533Z,91597.13
2023-05-18T10:42:09.392Z,91587.69
2023-05-18T10:45:12.854Z,91587.97
2023-05-18T10:48:17.050Z,91589.41
2023-05-18T10:51:22.570Z,91596.00
2023-05-18T10:54:25.833Z,91596.84
2023-05-18T10:57:39.009Z,91593.66
2023-05-18T11:00:46.003Z,91592.81
2023-05-18T11:03:50.253Z,91588.97
2023-05-18T11:07:03.044Z,91604.91
2023-05-18T11:10:15.728Z,91614.44
2023-05-18T11:13:19.248Z,91613.03
2023-05-18T11:16:33.338Z,91606.63
2023-05-18T11:19:37.859Z,91604.59
2023-05-18T11:22:44.924Z,91606.91
2023-05-18T11:25:56.946Z,91606.00
2023-05-18T11:29:00.331Z,91612.38
2023-05-18T11:32:05.250Z,91606.81
2023-05-18T11:35:23.678Z,91609.72
2023-05-18T11:38:50.330Z,91602.50
2023-05-18T11:42:01.692Z,91599.63
2023-05-18T11:45:12.914Z,91608.63
2023-05-18T11:48:16.232Z,91594.72
2023-05-18T11:51:19.907Z,91605.09
2023-05-18T11:54:29.732Z,91606.75
2023-05-18T11:57:36.137Z,91603.69
2023-05-18T12:00:40.077Z,91600.94
2023-05-18T12:03:44.818Z,91615.34
2023-05-18T12:06:50.286Z,91607.13
2023-05-18T12:09:53.520Z,91602.97
2023-05-18T12:12:58.730Z,91614.47
2023-05-18T12:16:02.346Z,91602.69
2023-05-18T12:19:05.632Z,91600.94
2023-05-18T12:22:10.350Z,91596.75
2023-05-18T12:25:13.624Z,91597.00
2023-05-18T12:28:17.838Z,91599.75
2023-05-18T12:31:21.589Z,91599.75
2023-05-18T12:34:30.493Z,91607.69
2023-05-18T12:37:41.642Z,91599.34
2023-05-18T12:40:49.454Z,91599.81
2023-05-18T12:43:55.395Z,91596.91
2023-05-18T12:46:58.717Z,91596.09
2023-05-18T12:50:05.452Z,91602.91
2023-05-18T12:53:08.797Z,91598.56
2023-05-18T12:56:13.419Z,91599.56
2023-05-18T12:59:18.458Z,91595.13
2023-05-18T13:02:38.055Z,91598.38
2023-05-18T13:05:43.064Z,91592.91
2023-05-18T13:08:46.722Z,91603.63
2023-05-18T13:12:03.937Z,91603.06
2023-05-18T13:15:14.911Z,91594.88
2023-05-18T13:18:18.221Z,91599.75
2023-05-18T13:21:21.349Z,91590.53
2023-05-18T13:24:24.718Z,91594.81
2023-05-18T13:27:30.289Z,91587.59
2023-05-18T13:30:34.380Z,91589.22
2023-05-18T13:33:37.659Z,91606.38
2023-05-18T13:36:40.943Z,91592.59
2023-05-18T13:39:44.222Z,91594.72
2023-05-18T13:42:47.963Z,91590.28
2023-05-18T13:45:51.322Z,91596.97
2023-05-18T13:48:54.535Z,91584.47
2023-05-18T13:52:00.881Z,91580.56
2023-05-18T13:55:05.651Z,91586.59
2023-05-18T13:58:08.749Z,91581.84
2023-05-18T14:01:13.904Z,91574.97
2023-05-18T14:04:17.248Z,91575.84
2023-05-18T14:07:20.455Z,91570.13
2023-05-18T14:10:24.078Z,91587.16
2023-05-18T14:13:27.366Z,91575.94
2023-05-18T14:16:31.285Z,91572.75
2023-05-18T14:19:34.495Z,91575.13
2023-05-18T14:22:37.748Z,91581.78
2023-05-18T14:25:40.980Z,91569.81
2023-05-18T14:28:44.336Z,91569.72
2023-05-18T14:31:47.898Z,91561.88
2023-05-18T14:34:56.354Z,91568.03
2023-05-18T14:37:59.621Z,91557.56
2023-05-18T14:41:02.991Z,91549.72
2023-05-18T14:44:09.296Z,91566.56
2023-05-18T14:47:12.635Z,91560.22
2023-05-18T14:50:15.995Z,91551.03
2023-05-18T14:53:19.194Z,91536.00
2023-05-18T14:56:22.699Z,91537.38
2023-05-18T14:59:26.439Z,91546.06
2023-05-18T15:02:29.727Z,91541.84
2023-05-18T15:05:34.721Z,91540.25
2023-05-18T15:08:38.138Z,91526.63
2023-05-18T15:11:41.675Z,91532.75
2023-05-18T15:14:45.262Z,91516.06
2023-05-18T15:17:49.342Z,91532.44
2023-05-18T15:20:53.005Z,91529.38
2023-05-18T15:23:56.624Z,91531.28
2023-05-18T15:26:59.851Z,91509.06
2023-05-18T15:30:03.960Z,91511.31
2023-05-18T15:33:07.178Z,91513.53
2023-05-18T15:36:10.652Z,91516.94
2023-05-18T15:39:14.049Z,91514.16
2023-05-18T15:42:17.635Z,91498.94
2023-05-18T15:45:20.874Z,91501.47
2023-05-18T15:48:24.166Z,91494.91
2023-05-18T15:51:27.428Z,91513.88
2023-05-18T15:54:30.691Z,91493.34
2023-05-18T15:57:33.954Z,91478.84
2023-05-18T16:00:37.201Z,91477.59
2023-05-18T16:03:40.567Z,91471.25
2023-05-18T16:06:43.874Z,91474.75
2023-05-18T16:09:48.671Z,91479.81
2023-05-18T16:12:51.574Z,91475.25
2023-05-18T16:15:54.885Z,91469.38
2023-05-18T16:18:58.500Z,91463.44
2023-05-18T16:22:01.750Z,91447.50
2023-05-18T16:25:05.138Z,91459.03
2023-05-18T16:28:08.958Z,91442.53
2023-05-18T16:31:12.924Z,91437.44
2023-05-18T16:34:16.365Z,91430.91
2023-05-18T16:37:19.684Z,91442.13
2023-05-18T16:40:22.926Z,91424.75
2023-05-18T16:43:26.164Z,91407.66
2023-05-18T16:46:29.856Z,91423.63
2023-05-18T16:49:33.071Z,91406.38
2023-05-18T16:52:36.678Z,91402.38
2023-05-18T16:55:39.965Z,91408.72
2023-05-18T16:58:43.158Z,91396.25
2023-05-18T17:01:46.602Z,91404.28
2023-05-18T17:04:52.961Z,91406.41
2023-05-18T17:07:56.751Z,91411.69
2023-05-18T17:11:00.002Z,91395.94
2023-05-18T17:14:03.846Z,91397.50
2023-05-18T17:17:08.316Z,91385.16
2023-05-18T17:20:12.531Z,91366.88
2023-05-18T17:23:19.340Z,91385.47
2023-05-18T17:26:22.975Z,91386.22
2023-05-18T17:29:27.721Z,91368.66
2023-05-18T17:32:30.985Z,91364.88
2023-05-18T17:35:34.288Z,91353.69
2023-05-18T17:38:37.557Z,91337.50
2023-05-18T17:41:40.884Z,91341.72
2023-05-18T17:44:46.733Z,91347.75
2023-05-18T17:47:50.613Z,91339.19
2023-05-18T17:50:53.952Z,91352.38
2023-05-18T17:53:57.313Z,91365.72
2023-05-18T17:57:00.553Z,91367.78
2023-05-18T18:00:04.471Z,91368.03
2023-05-18T18:03:14.769Z,91376.00
2023-05-18T18:06:23.038Z,91377.50
2023-05-18T18:09:26.381Z,91372.31
2023-05-18T18:12:29.571Z,91369.78
2023-05-18T18:15:32.796Z,91365.34
2023-05-18T18:18:37.377Z,91360.59
2023-05-18T18:21:40.612Z,91350.69
2023-05-18T18:24:43.818Z,91354.91
2023-05-18T18:27:47.004Z,91348.16
2023-05-18T18:30:50.290Z,91354.03
2023-05-18T18:33:53.465Z,91358.19
2023-05-18T18:36:57.460Z,91342.53
2023-05-18T18:40:00.749Z,91329.69
2023-05-18T18:43:03.957Z,91330.22
2023-05-18T18:46:07.483Z,91333.56
2023-05-18T18:49:10.778Z,91318.38
2023-05-18T18:52:14.209Z,91308.16
2023-05-18T18:55:20.493Z,91304.78
2023-05-18T18:58:24.947Z,91301.81
2023-05-18T19:01:28.227Z,91298.03
2023-05-18T19:04:31.675Z,91302.78
2023-05-18T19:07:35.673Z,91310.13
2023-05-18T19:10:38.884Z,91299.81
2023-05-18T19:13:42.213Z,91288.19
2023-05-18T19:16:45.598Z,91275.81
2023-05-18T19:19:48.935Z,91264.78
2023-05-18T19:22:54.160Z,91263.41
2023-05-18T19:25:57.378Z,91272.69
2023-05-18T19:29:01.733Z,91260.44
2023-05-18T19:32:07.256Z,91243.56
2023-05-18T19:35:10.606Z,91251.06
2023-05-18T19:38:13.971Z,91246.41
2023-05-18T19:41:17.166Z,91236.91
2023-05-18T19:44:20.443Z,91250.09
2023-05-18T19:47:23.816Z,91254.22
2023-05-18T19:50:27.094Z,91255.59
2023-05-18T19:53:30.629Z,91257.38
2023-05-18T19:56:35.156Z,91271.66
2023-05-18T19:59:38.500Z,91260.47
2023-05-18T20:02:41.830Z,91264.88
2023-05-18T20:05:45.178Z,91272.69
2023-05-18T20:08:48.602Z,91298.19
2023-05-18T20:11:51.911Z,91297.38
2023-05-18T20:14:55.096Z,91268.66
2023-05-18T20:17:59.601Z,91258.84
2023-05-18T20:21:03.271Z,91253.16
2023-05-18T20:24:06.743Z,91260.22
2023-05-18T20:27:10.132Z,91260.44
2023-05-18T20:30:13.545Z,91256.22
2023-05-18T20:33:18.345Z,91256.84
2023-05-18T20:36:22.004Z,91251.69
2023-05-18T20:39:26.781Z,91239.97
2023-05-18T20:42:39.182Z,91242.72
2023-05-18T20:45:49.894Z,91226.34
2023-05-18T20:48:55.984Z,91199.47
2023-05-18T20:51:59.313Z,91211.88
2023-05-18T20:55:02.719Z,91206.94
2023-05-18T20:58:06.132Z,91206.84
2023-05-18T21:01:09.472Z,91207.56
2023-05-18T21:04:13.341Z,91207.50
2023-05-18T21:07:17.267Z,91208.84
2023-05-18T21:10:20.532Z,91206.28
2023-05-18T21:13:24.118Z,91220.25
2023-05-18T21:16:27.534Z,91214.44
2023-05-18T21:19:30.811Z,91220.66
2023-05-18T21:22:34.049Z,91218.25
2023-05-18T21:25:37.390Z,91220.44
2023-05-18T21:28:40.611Z,91217.06
2023-05-18T21:31:43.931Z,91227.72
2023-05-18T21:34:47.155Z,91227.72
2023-05-18T21:37:50.539Z,91222.25
2023-05-18T21:40:53.747Z,91220.25
2023-05-18T21:43:58.441Z,91222.25
2023-05-18T21:47:01.643Z,91218.88
2023-05-18T21:50:05.180Z,91214.22
2023-05-18T21:53:08.431Z,91214.03
2023-05-18T21:56:11.871Z,91192.28
2023-05-18T21:59:15.071Z,91180.69
2023-05-18T22:02:18.431Z,91174.22
2023-05-18T22:05:21.841Z,91172.66
2023-05-18T22:08:25.156Z,91173.72
2023-05-18T22:11:28.483Z,91192.38
2023-05-18T22:14:32.050Z,91180.06
2023-05-18T22:17:37.235Z,91187.75
2023-05-18T22:20:41.186Z,91185.41
2023-05-18T22:23:44.382Z,91189.75
2023-05-18T22:26:47.557Z,91188.28
2023-05-18T22:29:50.706Z,91173.09
2023-05-18T22:32:54.036Z,91176.56
2023-05-18T22:35:57.239Z,91176.16
2023-05-18T22:39:00.589Z,91173.28
2023-05-18T22:42:03.844Z,91178.47
2023-05-18T22:45:07.712Z,91185.97
2023-05-18T22:48:11.399Z,91191.53
2023-05-18T22:51:16.332Z,91191.97
2023-05-18T22:54:19.268Z,91196.06
2023-05-18T22:57:22.423Z,91197.53
2023-05-18T23:00:27.853Z,91219.28
2023-05-18T23:03:31.347Z,91215.50
2023-05-18T23:06:35.296Z,91214.44
2023-05-18T23:09:41.605Z,91206.44
2023-05-18T23:12:46.334Z,91226.28
2023-05-18T23:15:49.914Z,91219.72
2023-05-18T23:18:54.225Z,91215.31
2023-05-18T23:21:57.602Z,91212.19
2023-05-18T23:25:01.026Z,91220.25
2023-05-18T23:28:04.410Z,91226.03
2023-05-18T23:31:07.692Z,91202.63
2023-05-18T23:34:11.322Z,91211.28
2023-05-18T23:37:19.302Z,91225.72
2023-05-18T23:40:23.277Z,91224.56
2023-05-18T23:43:26.769Z,91227.53
2023-05-18T23:46:32.641Z,91233.22
2023-05-18T23:49:36.163Z,91244.19
2023-05-18T23:52:39.989Z,91248.63
2023-05-18T23:55:43.814Z,91233.53
2023-05-18T23:58:48.115Z,91246.56
